createdAt,value
2018-04-10T00:01:35.249Z,14.90
2018-04-10T00:04:04.157Z,14.90
2018-04-10T00:06:32.377Z,14.80
2018-04-10T00:09:00.537Z,14.70
2018-04-10T00:11:28.725Z,14.70
2018-04-10T00:13:56.861Z,14.60
2018-04-10T00:16:25.008Z,14.70
2018-04-10T00:18:53.910Z,14.90
2018-04-10T00:21:22.053Z,14.70
2018-04-10T00:23:50.278Z,14.80
2018-04-10T00:26:18.456Z,14.90
2018-04-10T00:28:46.591Z,14.90
2018-04-10T00:31:15.541Z,14.80
2018-04-10T00:33:43.689Z,14.60
2018-04-10T00:36:11.834Z,14.70
2018-04-10T00:38:39.965Z,14.50
2018-04-10T00:41:08.277Z,14.40
2018-04-10T00:43:37.180Z,14.20
2018-04-10T00:46:05.324Z,14.40
2018-04-10T00:48:33.629Z,14.50
2018-04-10T00:51:01.758Z,14.30
2018-04-10T00:53:36.859Z,14.30
2018-04-10T00:56:04.985Z,14.30
2018-04-10T00:58:33.933Z,14.20
2018-04-10T01:01:02.150Z,14.30
2018-04-10T01:03:31.047Z,14.30
2018-04-10T01:05:59.945Z,14.10
2018-04-10T01:08:28.885Z,14.20
2018-04-10T01:10:57.032Z,14.00
2018-04-10T01:13:25.157Z,14.20
2018-04-10T01:15:53.393Z,14.20
2018-04-10T01:18:21.527Z,14.30
2018-04-10T01:20:49.745Z,14.30
2018-04-10T01:23:17.978Z,14.00
2018-04-10T01:25:46.127Z,14.20
2018-04-10T01:28:14.298Z,14.20
2018-04-10T01:30:42.458Z,13.90
2018-04-10T01:33:10.594Z,13.90
2018-04-10T01:35:38.724Z,14.00
2018-04-10T01:38:07.641Z,13.90
2018-04-10T01:40:35.765Z,13.60
2018-04-10T01:43:03.890Z,13.90
2018-04-10T01:45:32.038Z,13.80
2018-04-10T01:48:00.177Z,13.60
2018-04-10T01:50:28.329Z,13.70
2018-04-10T01:52:56.457Z,13.70
2018-04-10T01:55:25.365Z,13.90
2018-04-10T01:57:53.494Z,14.00
2018-04-10T02:00:21.641Z,14.00
2018-04-10T02:02:49.768Z,14.00
2018-04-10T02:05:17.913Z,13.90
2018-04-10T02:07:46.037Z,13.90
2018-04-10T02:10:14.161Z,13.80
2018-04-10T02:12:43.073Z,13.90
2018-04-10T02:15:11.204Z,13.80
2018-04-10T02:17:39.354Z,13.90
2018-04-10T02:20:07.508Z,13.60
2018-04-10T02:22:35.653Z,13.70
2018-04-10T02:25:04.566Z,13.70
2018-04-10T02:27:32.722Z,13.80
2018-04-10T02:30:01.643Z,13.80
2018-04-10T02:32:29.785Z,13.90
2018-04-10T02:34:58.678Z,13.70
2018-04-10T02:37:26.822Z,13.50
2018-04-10T02:39:54.945Z,13.60
2018-04-10T02:42:23.101Z,13.60
2018-04-10T02:44:51.255Z,13.60
2018-04-10T02:47:20.154Z,13.50
2018-04-10T02:49:48.329Z,13.50
2018-04-10T02:52:16.484Z,13.30
2018-04-10T02:54:45.383Z,13.40
2018-04-10T02:57:14.303Z,13.30
2018-04-10T02:59:42.445Z,13.30
2018-04-10T03:02:11.369Z,13.10
2018-04-10T03:04:39.514Z,13.10
2018-04-10T03:07:07.685Z,13.00
2018-04-10T03:09:36.582Z,12.90
2018-04-10T03:12:04.717Z,13.00
2018-04-10T03:14:32.897Z,13.20
2018-04-10T03:17:01.053Z,13.00
2018-04-10T03:19:29.177Z,13.10
2018-04-10T03:21:57.325Z,12.90
2018-04-10T03:24:26.241Z,13.10
2018-04-10T03:26:54.365Z,13.10
2018-04-10T03:29:22.510Z,13.00
2018-04-10T03:31:50.672Z,12.90
2018-04-10T03:34:18.821Z,13.10
2018-04-10T03:36:47.009Z,12.80
2018-04-10T03:39:15.143Z,12.80
2018-04-10T03:41:43.289Z,12.80
2018-04-10T03:44:11.449Z,12.90
2018-04-10T03:46:39.574Z,12.80
2018-04-10T03:49:08.470Z,12.70
2018-04-10T03:51:37.389Z,12.80
2018-04-10T03:54:05.546Z,12.90
2018-04-10T03:56:33.702Z,12.90
2018-04-10T03:59:02.604Z,13.00
2018-04-10T04:01:31.519Z,12.70
2018-04-10T04:03:59.681Z,13.00
2018-04-10T04:06:27.809Z,12.70
2018-04-10T04:08:55.960Z,12.90
2018-04-10T04:11:24.093Z,12.80
2018-04-10T04:13:52.242Z,12.90
2018-04-10T04:16:39.065Z,12.80
2018-04-10T04:19:25.302Z,13.00
2018-04-10T04:22:07.159Z,12.80
2018-04-10T04:24:35.302Z,12.60
2018-04-10T04:27:04.217Z,12.90
2018-04-10T04:29:32.350Z,12.70
2018-04-10T04:32:00.513Z,12.90
2018-04-10T04:34:28.669Z,13.00
2018-04-10T04:36:56.798Z,13.20
2018-04-10T04:39:25.717Z,13.00
2018-04-10T04:41:53.874Z,13.10
2018-04-10T04:44:22.022Z,13.30
2018-04-10T04:46:50.921Z,13.20
2018-04-10T04:49:19.834Z,13.20
2018-04-10T04:51:47.981Z,13.30
2018-04-10T04:54:16.869Z,13.20
2018-04-10T04:56:45.792Z,13.40
2018-04-10T04:59:13.927Z,13.40
2018-04-10T05:01:42.848Z,13.70
2018-04-10T05:04:10.976Z,13.20
2018-04-10T05:06:39.137Z,13.60
2018-04-10T05:09:07.269Z,13.60
2018-04-10T05:11:35.398Z,13.80
2018-04-10T05:14:04.353Z,13.90
2018-04-10T05:16:32.497Z,14.10
2018-04-10T05:19:00.629Z,13.70
2018-04-10T05:21:28.782Z,13.90
2018-04-10T05:23:56.909Z,14.10
2018-04-10T05:26:25.043Z,13.90
2018-04-10T05:28:53.201Z,14.20
2018-04-10T05:31:21.334Z,14.20
2018-04-10T05:33:49.471Z,14.50
2018-04-10T05:36:18.385Z,14.60
2018-04-10T05:38:46.533Z,14.30
2018-04-10T05:41:15.449Z,14.70
2018-04-10T05:43:43.626Z,14.50
2018-04-10T05:46:11.749Z,14.60
2018-04-10T05:48:39.879Z,14.70
2018-04-10T05:51:08.025Z,14.90
2018-04-10T05:53:36.205Z,15.00
2018-04-10T05:56:04.366Z,15.10
2018-04-10T05:58:33.260Z,15.20
2018-04-10T06:01:02.185Z,15.40
2018-04-10T06:03:30.347Z,15.70
2018-04-10T06:05:58.489Z,15.80
2018-04-10T06:08:27.376Z,16.10
2018-04-10T06:10:56.285Z,16.40
2018-04-10T06:13:24.791Z,16.50
2018-04-10T06:15:52.988Z,16.70
2018-04-10T06:18:21.110Z,16.40
2018-04-10T06:20:49.239Z,16.80
2018-04-10T06:23:17.361Z,16.70
2018-04-10T06:25:45.522Z,17.10
2018-04-10T06:28:14.463Z,17.30
2018-04-10T06:30:42.606Z,17.40
2018-04-10T06:33:10.762Z,17.70
2018-04-10T06:35:38.911Z,17.40
2018-04-10T06:38:07.803Z,17.10
2018-04-10T06:40:36.731Z,17.20
2018-04-10T06:43:04.857Z,17.50
2018-04-10T06:45:32.977Z,17.20
2018-04-10T06:48:01.127Z,17.00
2018-04-10T06:50:29.276Z,17.40
2018-04-10T06:52:57.466Z,17.50
2018-04-10T06:55:25.558Z,17.50
2018-04-10T06:57:53.713Z,17.60
2018-04-10T07:00:22.615Z,17.60
2018-04-10T07:02:50.737Z,17.80
2018-04-10T07:05:18.895Z,17.80
2018-04-10T07:07:47.110Z,18.20
2018-04-10T07:10:16.018Z,18.30
2018-04-10T07:12:44.153Z,18.50
2018-04-10T07:15:12.314Z,18.40
2018-04-10T07:17:40.449Z,18.10
2018-04-10T07:20:09.520Z,18.30
2018-04-10T07:22:38.490Z,18.30
2018-04-10T07:25:06.648Z,18.20
2018-04-10T07:27:34.790Z,18.50
2018-04-10T07:30:02.950Z,18.50
2018-04-10T07:32:31.069Z,18.50
2018-04-10T07:34:59.201Z,18.80
2018-04-10T07:37:27.344Z,18.80
2018-04-10T07:39:56.233Z,19.10
2018-04-10T07:42:25.149Z,19.20
2018-04-10T07:44:53.290Z,19.40
2018-04-10T07:47:22.188Z,19.50
2018-04-10T07:49:51.098Z,19.30
2018-04-10T07:52:19.234Z,19.60
2018-04-10T07:54:48.163Z,19.50
2018-04-10T07:57:16.297Z,19.70
2018-04-10T07:59:45.207Z,19.90
2018-04-10T08:02:13.390Z,20.00
2018-04-10T08:04:41.562Z,19.90
2018-04-10T08:07:09.705Z,20.10
2018-04-10T08:09:38.598Z,20.30
2018-04-10T08:12:07.510Z,20.40
2018-04-10T08:14:35.636Z,20.30
2018-04-10T08:17:03.776Z,20.60
2018-04-10T08:19:31.893Z,20.80
2018-04-10T08:22:00.040Z,20.80
2018-04-10T08:24:28.184Z,20.70
2018-04-10T08:26:56.321Z,20.90
2018-04-10T08:29:25.229Z,20.70
2018-04-10T08:31:53.353Z,20.90
2018-04-10T08:34:21.510Z,20.90
2018-04-10T08:36:49.642Z,20.90
2018-04-10T08:39:17.765Z,20.90
2018-04-10T08:41:45.908Z,21.10
2018-04-10T08:44:14.061Z,21.00
2018-04-10T08:46:42.182Z,21.20
2018-04-10T08:49:10.314Z,21.10
2018-04-10T08:51:38.462Z,21.00
2018-04-10T08:54:07.378Z,21.30
2018-04-10T08:56:35.521Z,21.50
2018-04-10T08:59:04.422Z,21.90
2018-04-10T09:01:33.349Z,21.60
2018-04-10T09:04:01.481Z,21.80
2018-04-10T09:06:30.373Z,21.90
2018-04-10T09:08:59.281Z,22.20
2018-04-10T09:11:27.414Z,22.30
2018-04-10T09:13:55.565Z,22.20
2018-04-10T09:16:23.698Z,22.70
2018-04-10T09:18:51.842Z,22.60
2018-04-10T09:21:20.732Z,22.90
2018-04-10T09:23:49.638Z,23.00
2018-04-10T09:26:17.767Z,22.90
2018-04-10T09:28:45.918Z,23.10
2018-04-10T09:31:14.054Z,23.20
2018-04-10T09:33:42.184Z,23.40
2018-04-10T09:36:10.326Z,23.50
2018-04-10T09:38:38.460Z,23.70
2018-04-10T09:41:07.371Z,23.90
2018-04-10T09:43:35.548Z,23.80
2018-04-10T09:46:04.438Z,23.90
2018-04-10T09:48:32.569Z,24.00
2018-04-10T09:51:00.733Z,24.10
2018-04-10T09:53:28.878Z,24.60
2018-04-10T09:55:57.002Z,24.70
2018-04-10T09:58:25.957Z,25.00
2018-04-10T10:00:54.081Z,25.30
2018-04-10T10:03:22.237Z,25.60
2018-04-10T10:05:51.141Z,26.00
2018-04-10T10:08:19.287Z,26.10
2018-04-10T10:10:47.419Z,26.50
2018-04-10T10:13:15.571Z,26.60
2018-04-10T10:15:43.709Z,26.90
2018-04-10T10:18:12.605Z,26.80
2018-04-10T10:20:41.520Z,27.10
2018-04-10T10:23:10.609Z,27.10
2018-04-10T10:25:38.746Z,27.50
2018-04-10T10:28:06.974Z,27.80
2018-04-10T10:30:35.102Z,28.20
2018-04-10T10:33:04.070Z,28.40
2018-04-10T10:35:32.185Z,28.60
2018-04-10T10:38:00.316Z,28.80
2018-04-10T10:40:28.470Z,28.80
2018-04-10T10:42:56.622Z,28.70
2018-04-10T10:45:24.790Z,29.30
2018-04-10T10:47:53.043Z,29.40
2018-04-10T10:50:21.201Z,29.70
2018-04-10T10:52:50.160Z,29.60
2018-04-10T10:55:18.302Z,30.10
2018-04-10T10:57:46.458Z,30.20
2018-04-10T11:00:14.612Z,30.40
2018-04-10T11:02:42.760Z,30.80
2018-04-10T11:05:10.917Z,30.80
2018-04-10T11:07:39.117Z,31.40
2018-04-10T11:10:07.293Z,31.80
2018-04-10T11:12:35.477Z,32.20
2018-04-10T11:15:04.365Z,32.30
2018-04-10T11:17:33.302Z,32.40
2018-04-10T11:20:01.436Z,32.60
2018-04-10T11:22:30.351Z,33.00
2018-04-10T11:24:58.498Z,33.10
2018-04-10T11:27:27.433Z,33.50
2018-04-10T11:29:55.607Z,34.00
2018-04-10T11:32:23.777Z,33.90
2018-04-10T11:34:51.917Z,34.30
2018-04-10T11:37:20.860Z,34.50
2018-04-10T11:39:49.004Z,34.50
2018-04-10T11:42:17.209Z,35.10
2018-04-10T11:44:45.337Z,35.50
2018-04-10T11:47:13.457Z,35.80
2018-04-10T11:49:41.680Z,36.30
2018-04-10T11:52:09.853Z,37.30
2018-04-10T11:54:38.012Z,37.60
2018-04-10T11:57:06.934Z,38.30
2018-04-10T11:59:35.053Z,39.40
2018-04-10T12:02:03.181Z,39.10
2018-04-10T12:04:31.342Z,41.30
2018-04-10T12:06:59.476Z,41.40
2018-04-10T12:09:28.401Z,42.80
2018-04-10T12:11:56.537Z,44.10
2018-04-10T12:14:25.456Z,45.10
2018-04-10T12:16:53.579Z,46.10
2018-04-10T12:19:21.714Z,44.70
2018-04-10T12:21:49.854Z,45.40
2018-04-10T12:24:18.759Z,46.40
2018-04-10T12:26:46.897Z,46.80
2018-04-10T12:29:15.016Z,48.10
2018-04-10T12:31:43.154Z,46.80
2018-04-10T12:34:12.054Z,48.80
2018-04-10T12:36:41.024Z,47.20
2018-04-10T12:39:10.057Z,46.20
2018-04-10T12:41:38.175Z,46.20
2018-04-10T12:44:06.313Z,48.80
2018-04-10T12:46:34.453Z,50.30
2018-04-10T12:49:03.335Z,50.90
2018-04-10T12:51:32.241Z,52.10
2018-04-10T12:54:00.385Z,51.90
2018-04-10T12:56:28.508Z,51.10
2018-04-10T12:58:56.666Z,50.50
2018-04-10T13:01:24.789Z,51.20
2018-04-10T13:03:52.905Z,52.80
2018-04-10T13:06:21.450Z,53.10
2018-04-10T13:08:49.660Z,51.90
2018-04-10T13:11:17.805Z,50.70
2018-04-10T13:13:46.791Z,49.10
2018-04-10T13:16:14.872Z,51.00
2018-04-10T13:18:43.781Z,50.50
2018-04-10T13:21:11.905Z,49.90
2018-04-10T13:23:40.148Z,50.00
2018-04-10T13:26:08.293Z,49.80
2018-04-10T13:28:37.189Z,51.60
2018-04-10T13:31:05.328Z,52.60
2018-04-10T13:33:34.238Z,51.90
2018-04-10T13:36:03.123Z,52.70
2018-04-10T13:38:32.029Z,52.50
2018-04-10T13:41:00.168Z,52.30
2018-04-10T13:43:28.318Z,53.40
2018-04-10T13:45:56.435Z,53.10
2018-04-10T13:48:25.457Z,52.50
2018-04-10T13:50:53.703Z,52.80
2018-04-10T13:53:22.590Z,52.00
2018-04-10T13:55:51.500Z,52.40
2018-04-10T13:58:19.669Z,53.00
2018-04-10T14:00:47.850Z,53.30
2018-04-10T14:03:15.977Z,50.60
2018-04-10T14:05:44.117Z,47.90
2018-04-10T14:08:12.242Z,44.30
2018-04-10T14:10:41.194Z,44.90
2018-04-10T14:13:09.320Z,45.90
2018-04-10T14:15:38.673Z,47.20
2018-04-10T14:18:06.828Z,48.50
2018-04-10T14:20:35.053Z,49.70
2018-04-10T14:23:04.390Z,49.20
2018-04-10T14:25:33.480Z,49.10
2018-04-10T14:28:01.710Z,50.80
2018-04-10T14:30:30.599Z,51.00
2018-04-10T14:32:59.509Z,49.90
2018-04-10T14:35:28.631Z,51.10
2018-04-10T14:37:56.790Z,51.10
2018-04-10T14:40:24.925Z,50.60
2018-04-10T14:42:53.058Z,50.40
2018-04-10T14:45:22.106Z,51.90
2018-04-10T14:47:51.112Z,51.20
2018-04-10T14:50:19.253Z,50.50
2018-04-10T14:52:47.389Z,49.90
2018-04-10T14:55:15.549Z,49.00
2018-04-10T14:57:43.681Z,47.90
2018-04-10T15:00:12.590Z,46.30
2018-04-10T15:02:40.730Z,44.60
2018-04-10T15:05:08.956Z,45.10
2018-04-10T15:07:37.098Z,44.40
2018-04-10T15:10:06.006Z,41.80
2018-04-10T15:12:34.165Z,38.60
2018-04-10T15:15:03.098Z,36.80
2018-04-10T15:17:31.226Z,35.90
2018-04-10T15:20:00.181Z,35.10
2018-04-10T15:22:28.326Z,35.00
2018-04-10T15:24:56.442Z,36.90
2018-04-10T15:27:25.641Z,38.60
2018-04-10T15:29:54.529Z,40.50
2018-04-10T15:32:22.677Z,42.40
2018-04-10T15:34:50.814Z,43.50
2018-04-10T15:37:18.997Z,43.60
2018-04-10T15:39:47.138Z,43.50
2018-04-10T15:42:16.117Z,44.70
2018-04-10T15:44:45.011Z,44.00
2018-04-10T15:47:14.056Z,44.20
2018-04-10T15:49:42.180Z,44.50
2018-04-10T15:52:11.080Z,45.30
2018-04-10T15:54:39.224Z,45.10
2018-04-10T15:57:07.431Z,44.70
2018-04-10T15:59:35.590Z,43.80
2018-04-10T16:02:04.482Z,43.70
2018-04-10T16:04:33.389Z,44.00
2018-04-10T16:07:01.510Z,43.40
2018-04-10T16:09:29.655Z,41.20
2018-04-10T16:11:57.791Z,39.70
2018-04-10T16:14:25.932Z,40.60
2018-04-10T16:16:54.096Z,39.40
2018-04-10T16:19:22.220Z,38.50
2018-04-10T16:21:50.346Z,39.00
2018-04-10T16:24:18.473Z,39.70
2018-04-10T16:26:46.607Z,37.20
2018-04-10T16:29:15.534Z,37.40
2018-04-10T16:31:44.578Z,37.30
2018-04-10T16:34:12.727Z,36.30
2018-04-10T16:36:40.864Z,36.70
2018-04-10T16:39:08.992Z,37.20
2018-04-10T16:41:37.133Z,38.00
2018-04-10T16:44:05.273Z,37.00
2018-04-10T16:46:33.399Z,37.10
2018-04-10T16:49:01.558Z,35.10
2018-04-10T16:51:30.173Z,33.20
2018-04-10T16:53:58.320Z,31.10
2018-04-10T16:56:26.464Z,30.60
2018-04-10T16:58:54.597Z,29.60
2018-04-10T17:01:23.498Z,29.00
2018-04-10T17:03:52.385Z,28.40
2018-04-10T17:06:21.306Z,27.70
2018-04-10T17:08:49.491Z,26.90
2018-04-10T17:11:17.683Z,26.40
2018-04-10T17:13:45.809Z,26.30
2018-04-10T17:16:13.940Z,26.40
2018-04-10T18:04:35.399Z,21.20
2018-04-10T18:07:03.542Z,21.40
2018-04-10T18:09:32.433Z,21.50
2018-04-10T18:12:01.346Z,21.50
2018-04-10T18:14:29.497Z,21.40
2018-04-10T18:16:58.409Z,21.40
2018-04-10T18:19:26.537Z,21.20
2018-04-10T18:21:54.662Z,21.40
2018-04-10T18:24:22.817Z,21.30
2018-04-10T18:26:50.943Z,21.20
2018-04-10T18:29:19.709Z,21.20
2018-04-10T18:31:47.834Z,21.00
2018-04-10T18:34:16.763Z,21.10
2018-04-10T18:36:44.890Z,21.00
2018-04-10T18:39:13.801Z,21.00
2018-04-10T18:41:41.966Z,20.80
2018-04-10T18:44:10.853Z,20.90
2018-04-10T18:46:38.997Z,20.80
2018-04-10T18:49:07.125Z,20.70
2018-04-10T18:51:35.281Z,20.70
2018-04-10T18:54:03.454Z,20.60
2018-04-10T18:56:31.591Z,20.70
2018-04-10T18:58:59.737Z,20.60
2018-04-10T19:01:27.992Z,20.40
2018-04-10T19:03:56.255Z,20.40
2018-04-10T19:06:25.148Z,20.30
2018-04-10T19:08:53.289Z,20.40
2018-04-10T19:11:21.457Z,20.20
2018-04-10T19:13:50.387Z,20.20
2018-04-10T19:16:18.532Z,20.10
2018-04-10T19:18:46.691Z,19.90
2018-04-10T19:21:15.587Z,20.00
2018-04-10T19:23:44.554Z,19.50
2018-04-10T19:26:12.686Z,19.40
2018-04-10T19:28:40.813Z,19.00
2018-04-10T19:31:09.746Z,18.70
2018-04-10T19:33:37.885Z,19.00
2018-04-10T19:36:06.791Z,19.00
2018-04-10T19:38:34.943Z,18.50
2018-04-10T19:41:03.869Z,18.50
2018-04-10T19:43:32.027Z,18.40
2018-04-10T19:46:00.179Z,18.10
2018-04-10T19:48:29.099Z,18.30
2018-04-10T19:50:57.249Z,18.30
2018-04-10T19:53:26.169Z,18.20
2018-04-10T19:55:54.922Z,17.90
2018-04-10T19:58:23.848Z,17.80
2018-04-10T20:00:51.985Z,18.00
2018-04-10T20:03:20.898Z,17.50
2018-04-10T20:05:49.046Z,17.30
2018-04-10T20:08:17.958Z,17.50
2018-04-10T20:10:46.082Z,17.20
2018-04-10T20:13:14.237Z,17.00
2018-04-10T20:15:42.428Z,17.00
2018-04-10T20:18:10.561Z,16.90
2018-04-10T20:20:38.713Z,16.90
2018-04-10T20:23:06.845Z,16.70
2018-04-10T20:25:34.996Z,16.70
2018-04-10T20:28:03.147Z,16.80
2018-04-10T20:30:31.297Z,16.50
2018-04-10T20:32:59.490Z,16.20
2018-04-10T20:35:27.633Z,16.40
2018-04-10T20:37:56.551Z,16.50
2018-04-10T20:40:24.687Z,16.60
2018-04-10T20:42:53.618Z,16.30
2018-04-10T20:45:21.745Z,16.60
2018-04-10T20:47:49.885Z,16.70
2018-04-10T20:50:18.047Z,16.90
2018-04-10T20:52:46.184Z,16.80
2018-04-10T20:55:14.318Z,16.90
2018-04-10T20:57:42.469Z,17.00
2018-04-10T21:00:10.600Z,17.10
2018-04-10T21:02:39.493Z,17.10
2018-04-10T21:05:07.641Z,17.20
2018-04-10T21:07:35.770Z,17.40
2018-04-10T21:10:03.914Z,16.90
2018-04-10T21:12:32.042Z,16.70
2018-04-10T21:15:00.193Z,16.70
2018-04-10T21:17:28.328Z,16.60
2018-04-10T21:19:56.477Z,16.80
2018-04-10T21:22:24.621Z,16.80
2018-04-10T21:24:52.745Z,16.90
2018-04-10T21:27:20.901Z,16.60
2018-04-10T21:29:49.814Z,16.40
2018-04-10T21:32:18.001Z,16.30
2018-04-10T21:34:46.127Z,16.30
2018-04-10T21:37:15.045Z,16.70
2018-04-10T21:39:43.173Z,16.40
2018-04-10T21:42:11.327Z,16.50
2018-04-10T21:44:39.463Z,16.50
2018-04-10T21:47:07.601Z,16.30
2018-04-10T21:49:35.751Z,16.30
2018-04-10T21:52:03.873Z,16.60
2018-04-10T21:54:32.022Z,16.40
2018-04-10T21:57:00.182Z,16.40
2018-04-10T21:59:28.322Z,16.40
2018-04-10T22:01:56.461Z,16.50
2018-04-10T22:04:24.601Z,16.60
2018-04-10T22:06:52.726Z,16.60
2018-04-10T22:09:20.890Z,16.70
2018-04-10T22:11:49.021Z,16.50
2018-04-10T22:14:17.156Z,16.70
2018-04-10T22:16:45.314Z,16.60
2018-04-10T22:19:13.444Z,16.20
2018-04-10T22:21:41.582Z,16.00
2018-04-10T22:24:09.730Z,15.90
2018-04-10T22:26:37.886Z,15.80
2018-04-10T22:29:06.090Z,15.80
2018-04-10T22:31:34.193Z,15.90
2018-04-10T22:34:02.314Z,16.10
2018-04-10T22:36:30.451Z,15.60
2018-04-10T22:38:58.579Z,15.60
2018-04-10T22:41:26.800Z,15.30
2018-04-10T22:43:54.882Z,15.20
2018-04-10T22:46:23.034Z,15.40
2018-04-10T22:48:51.171Z,15.30
2018-04-10T22:51:19.990Z,15.50
2018-04-10T22:53:48.126Z,15.70
2018-04-10T22:56:16.290Z,15.80
2018-04-10T22:58:44.418Z,16.00
2018-04-10T23:01:12.553Z,16.10
2018-04-10T23:03:40.702Z,16.30
2018-04-10T23:06:08.852Z,16.30
2018-04-10T23:08:37.018Z,16.50
2018-04-10T23:11:05.150Z,16.50
2018-04-10T23:13:33.310Z,16.40
2018-04-10T23:16:01.483Z,16.10
2018-04-10T23:18:29.650Z,16.30
2018-04-10T23:20:57.850Z,16.20
2018-04-10T23:23:25.986Z,16.00
2018-04-10T23:25:54.139Z,16.10
2018-04-10T23:28:22.270Z,15.90
2018-04-10T23:30:50.431Z,16.00
2018-04-10T23:33:18.569Z,16.00
2018-04-10T23:35:46.729Z,16.20
2018-04-10T23:38:15.629Z,16.40
2018-04-10T23:40:43.770Z,16.50
2018-04-10T23:43:11.925Z,16.60
2018-04-10T23:45:40.078Z,16.70
2018-04-10T23:48:08.214Z,16.80
2018-04-10T23:50:37.130Z,16.40
2018-04-10T23:53:05.262Z,16.40
2018-04-10T23:55:34.173Z,16.50
2018-04-10T23:58:02.298Z,16.70
